Richmond, CA

10:13 PM PST on December 20, 2014 (GMT -0800)
El Cerrito / Richmond Heights | Change Station
CLOSE
Current Station
Personal Weather Station
Location: El Cerrito, CA
Elevation: 300 ft
Nearby Weather Stations
Active Advisory: Coastal Flood Advisory

Elev 300 ft 37.94 °N, 122.31 °W | Updated 15 minutes ago

Overcast
Overcast
55.7 °F
Feels Like 55.7 °F
N
3.0
Wind Variable Wind from South
Gusts 9.0 mph

Today
High -- | Low -- °F
--% Chance of Precip.
Yesterday
High -- | Low -- °F
Precip. -- in
7:20 AM 4:52 PM
Waning Crescent, 1% visible
Pressure 30.26 in
Visibility 10.0 miles
Clouds Few 1500 ft
Mostly Cloudy 1700 ft
Overcast 1900 ft
Dew Point 55 °F
Humidity 97%
Rainfall 0.00 in
Snow Depth Not available.
UV 0 out of 12
Pollen 4.00 out of 12
Air Quality Not available.
Flu Activity Not available.
METAR KOAK 210553Z 19006KT 10SM FEW015 BKN017 OVC019 14/12 A3026 RMK AO2 SLP245 T01440122 10156 20144 51010

More Conditions Fewer Conditions

Pressure 30.26 in
Visibility 10.0 miles
Clouds Few 1500 ft
Mostly Cloudy 1700 ft
Overcast 1900 ft
Dew Point 55 °F
Humidity 97%
Rainfall 0.00 in
Snow Depth Not available.
UV 0 out of 12
Pollen 4.00 out of 12
Air Quality Not available.
Flu Activity Not available.
METAR KOAK 210553Z 19006KT 10SM FEW015 BKN017 OVC019 14/12 A3026 RMK AO2 SLP245 T01440122 10156 20144 51010

More Conditions Fewer Conditions

10-Day Weather Forecast

Almanac

Astronomy

Dec. 20, 2014 Rise Set
Actual Time
Civil Twilight
Nautical Twilight
Astronomical Twilight
Moon
Length of Visible Light
Length of Day
Tomorrow will be .
, % of the Moon is Illuminated

Today's Extremes

State Highs State Lows

Community

WunderPhotos

Upload Photos

1,779,360 photos uploaded!

WunderBlogs® & News

Nearby

Air Quality

  Air Quality AQ Index Pollutant
Not available.

Snow Depth

Station Depth Elevation

Earthquake Activity

City Distance Mag. Time & Date
Minimum magnitude displayed is 2.5.

Coastal Water Temperatures

Place Temperature

Nearby Weather Stations